Terminal Aerodrome Forecast
Issued by NWS Burlington, VT

Home | Current Version | Previous Version | Text Only | Print | Product List | Glossary On
Versions: 1 2 3 4 5 6 7 8 9 10 11 12 13 14 15 16
000
FTUS41 KBTV 252327
TAFBTV
TAF
KBTV 252327Z 2600/2624 25015G25KT P6SM OVC040
     FM260600 26010G17KT P6SM OVC035
     FM261000 24010KT P6SM OVC025
     FM261500 23010KT P6SM BKN030=

USA.gov is the U.S. government's official web portal to all federal, state and local government web resources and services.